createdAt,value
2023-03-17T00:01:54.659Z,1.05
2023-03-17T00:04:24.104Z,0.68
2023-03-17T00:06:51.693Z,0.98
2023-03-17T00:09:19.908Z,0.90
2023-03-17T00:11:47.203Z,1.35
2023-03-17T00:14:14.679Z,1.10
2023-03-17T00:16:44.329Z,0.82
2023-03-17T00:19:21.603Z,1.00
2023-03-17T00:21:49.415Z,1.05
2023-03-17T00:24:17.034Z,0.85
2023-03-17T00:26:43.780Z,1.10
2023-03-17T00:29:10.627Z,1.00
2023-03-17T00:31:39.017Z,1.88
2023-03-17T00:34:07.767Z,1.42
2023-03-17T00:36:34.689Z,1.10
2023-03-17T00:39:04.095Z,1.00
2023-03-17T00:41:30.841Z,1.30
2023-03-17T00:43:57.663Z,0.93
2023-03-17T00:46:35.934Z,1.52
2023-03-17T00:49:10.104Z,1.20
2023-03-17T00:51:40.273Z,1.17
2023-03-17T00:54:07.869Z,1.25
2023-03-17T00:56:34.676Z,1.00
2023-03-17T00:59:01.483Z,0.98
2023-03-17T01:01:28.255Z,1.00
2023-03-17T01:03:55.007Z,1.20
2023-03-17T01:06:21.998Z,1.08
2023-03-17T01:08:49.259Z,1.30
2023-03-17T01:11:18.769Z,0.88
2023-03-17T01:13:47.704Z,1.20
2023-03-17T01:16:15.703Z,0.90
2023-03-17T01:18:43.485Z,0.88
2023-03-17T01:21:10.334Z,1.48
2023-03-17T01:23:37.422Z,1.48
2023-03-17T01:26:04.409Z,1.50
2023-03-17T01:28:31.113Z,1.13
2023-03-17T01:30:57.961Z,1.05
2023-03-17T01:33:25.615Z,1.42
2023-03-17T01:35:52.480Z,1.33
2023-03-17T01:38:19.267Z,1.33
2023-03-17T01:40:51.580Z,1.10
2023-03-17T01:43:30.625Z,1.40
2023-03-17T01:46:21.014Z,1.13
2023-03-17T01:49:23.484Z,1.13
2023-03-17T01:51:58.989Z,1.40
2023-03-17T01:54:39.706Z,1.23
2023-03-17T01:57:15.171Z,1.48
2023-03-17T01:59:53.441Z,1.75
2023-03-17T02:02:29.616Z,0.90
2023-03-17T02:04:57.269Z,1.25
2023-03-17T02:07:26.547Z,1.20
2023-03-17T02:09:55.440Z,1.27
2023-03-17T02:12:24.658Z,1.13
2023-03-17T02:14:52.827Z,1.10
2023-03-17T02:17:22.071Z,1.55
2023-03-17T02:19:49.470Z,1.58
2023-03-17T02:22:18.993Z,1.05
2023-03-17T02:24:52.657Z,1.20
2023-03-17T02:27:22.716Z,1.05
2023-03-17T02:29:50.832Z,1.08
2023-03-17T02:32:19.516Z,1.42
2023-03-17T02:34:48.375Z,1.45
2023-03-17T02:37:16.660Z,1.10
2023-03-17T02:39:43.714Z,1.17
2023-03-17T02:42:10.891Z,1.27
2023-03-17T02:44:37.616Z,1.20
2023-03-17T02:47:04.970Z,1.40
2023-03-17T02:49:32.772Z,1.23
2023-03-17T02:51:59.455Z,1.52
2023-03-17T02:54:26.517Z,1.30
2023-03-17T02:56:53.249Z,1.15
2023-03-17T02:59:19.982Z,1.02
2023-03-17T03:01:48.418Z,1.30
2023-03-17T03:04:15.327Z,1.27
2023-03-17T03:06:42.607Z,1.20
2023-03-17T03:09:10.519Z,1.02
2023-03-17T03:11:37.861Z,1.42
2023-03-17T03:14:05.160Z,1.45
2023-03-17T03:16:32.029Z,1.38
2023-03-17T03:18:58.712Z,1.55
2023-03-17T03:21:25.584Z,1.50
2023-03-17T03:23:52.593Z,1.50
2023-03-17T03:26:19.429Z,1.65
2023-03-17T03:28:46.169Z,1.52
2023-03-17T03:31:13.902Z,1.80
2023-03-17T03:33:42.095Z,1.50
2023-03-17T03:36:09.082Z,1.70
2023-03-17T03:38:36.356Z,1.08
2023-03-17T03:41:03.100Z,1.63
2023-03-17T03:43:29.791Z,1.30
2023-03-17T03:45:56.638Z,1.30
2023-03-17T03:48:23.846Z,1.30
2023-03-17T03:50:50.525Z,2.13
2023-03-17T03:53:17.387Z,1.38
2023-03-17T03:55:44.095Z,1.40
2023-03-17T03:58:11.344Z,1.38
2023-03-17T04:00:38.124Z,1.23
2023-03-17T04:03:05.177Z,1.08
2023-03-17T04:05:31.948Z,2.20
2023-03-17T04:07:58.761Z,1.48
2023-03-17T04:10:25.560Z,1.48
2023-03-17T04:12:52.336Z,1.67
2023-03-17T04:15:20.402Z,1.58
2023-03-17T04:17:47.548Z,1.40
2023-03-17T04:20:15.321Z,1.77
2023-03-17T04:22:43.327Z,1.02
2023-03-17T04:25:11.755Z,1.45
2023-03-17T04:27:38.521Z,1.90
2023-03-17T04:30:09.244Z,1.45
2023-03-17T04:32:36.047Z,1.50
2023-03-17T04:35:03.097Z,1.60
2023-03-17T04:37:29.982Z,1.20
2023-03-17T04:39:56.709Z,1.10
2023-03-17T04:42:23.415Z,1.15
2023-03-17T04:44:50.159Z,1.67
2023-03-17T04:47:17.034Z,1.92
2023-03-17T04:49:43.826Z,1.30
2023-03-17T04:52:10.830Z,1.40
2023-03-17T04:54:37.949Z,1.02
2023-03-17T04:57:04.668Z,1.50
2023-03-17T04:59:31.354Z,1.60
2023-03-17T05:01:58.115Z,1.23
2023-03-17T05:04:31.532Z,1.25
2023-03-17T05:06:59.146Z,1.80
2023-03-17T05:09:26.876Z,1.58
2023-03-17T05:11:53.661Z,1.58
2023-03-17T05:14:20.956Z,1.58
2023-03-17T05:16:48.790Z,1.50
2023-03-17T05:19:16.610Z,1.67
2023-03-17T05:21:43.715Z,1.88
2023-03-17T05:24:10.479Z,1.92
2023-03-17T05:26:37.542Z,1.77
2023-03-17T05:29:04.520Z,1.60
2023-03-17T05:31:32.071Z,1.73
2023-03-17T05:33:59.017Z,2.40
2023-03-17T05:36:25.895Z,1.52
2023-03-17T05:38:52.650Z,1.50
2023-03-17T05:41:19.733Z,1.90
2023-03-17T05:43:46.787Z,1.58
2023-03-17T05:46:13.781Z,1.88
2023-03-17T05:48:40.729Z,1.17
2023-03-17T05:51:07.687Z,1.65
2023-03-17T05:53:35.943Z,1.27
2023-03-17T05:56:03.099Z,1.33
2023-03-17T05:58:29.951Z,1.63
2023-03-17T06:00:56.954Z,1.40
2023-03-17T06:03:23.734Z,1.30
2023-03-17T06:05:50.641Z,1.95
2023-03-17T06:08:17.713Z,1.27
2023-03-17T06:10:44.503Z,1.45
2023-03-17T06:13:11.596Z,1.75
2023-03-17T06:15:38.785Z,1.80
2023-03-17T06:18:05.842Z,1.73
2023-03-17T06:20:34.177Z,1.90
2023-03-17T06:23:04.917Z,1.40
2023-03-17T06:25:34.486Z,2.22
2023-03-17T06:28:03.480Z,1.48
2023-03-17T06:30:34.634Z,1.90
2023-03-17T06:33:02.351Z,1.65
2023-03-17T06:35:30.634Z,1.65
2023-03-17T06:37:57.972Z,1.52
2023-03-17T06:40:24.789Z,1.58
2023-03-17T06:42:51.530Z,1.17
2023-03-17T06:45:18.305Z,1.38
2023-03-17T06:47:44.995Z,2.95
2023-03-17T06:50:12.573Z,1.58
2023-03-17T06:52:39.719Z,1.58
2023-03-17T06:55:08.489Z,1.92
2023-03-17T06:57:43.685Z,1.67
2023-03-17T07:00:12.573Z,1.58
2023-03-17T07:02:39.648Z,1.52
2023-03-17T07:05:08.076Z,1.90
2023-03-17T07:07:35.732Z,1.73
2023-03-17T07:10:03.287Z,1.60
2023-03-17T07:12:30.512Z,1.63
2023-03-17T07:14:57.993Z,1.80
2023-03-17T07:17:25.269Z,1.90
2023-03-17T07:19:52.358Z,1.90
2023-03-17T07:22:19.331Z,1.60
2023-03-17T07:24:47.019Z,1.90
2023-03-17T07:27:14.462Z,2.15
2023-03-17T07:29:41.471Z,2.10
2023-03-17T07:32:09.592Z,1.92
2023-03-17T07:34:37.351Z,1.63
2023-03-17T07:37:05.220Z,2.10
2023-03-17T07:39:31.962Z,1.52
2023-03-17T07:41:58.762Z,1.98
2023-03-17T07:44:25.935Z,1.95
2023-03-17T07:46:52.956Z,2.08
2023-03-17T07:49:34.061Z,2.38
2023-03-17T07:52:10.895Z,1.40
2023-03-17T07:54:37.723Z,1.83
2023-03-17T07:57:05.764Z,2.20
2023-03-17T07:59:34.340Z,2.03
2023-03-17T08:02:01.471Z,1.92
2023-03-17T08:04:28.962Z,1.65
2023-03-17T08:06:57.160Z,1.70
2023-03-17T08:09:24.072Z,1.63
2023-03-17T08:11:51.999Z,1.92
2023-03-17T08:14:18.745Z,1.92
2023-03-17T08:16:45.640Z,1.60
2023-03-17T08:19:12.603Z,1.90
2023-03-17T08:21:39.727Z,2.05
2023-03-17T08:24:06.745Z,1.85
2023-03-17T08:26:34.093Z,1.80
2023-03-17T08:29:01.363Z,2.65
2023-03-17T08:31:28.663Z,1.65
2023-03-17T08:33:57.115Z,1.73
2023-03-17T08:36:24.280Z,2.28
2023-03-17T08:38:51.121Z,1.67
2023-03-17T08:41:20.774Z,2.00
2023-03-17T08:43:48.781Z,1.90
2023-03-17T08:46:21.926Z,1.73
2023-03-17T08:48:51.011Z,2.05
2023-03-17T08:51:20.832Z,2.00
2023-03-17T08:53:48.941Z,2.25
2023-03-17T08:56:16.864Z,1.88
2023-03-17T08:58:43.898Z,2.72
2023-03-17T09:01:10.988Z,2.10
2023-03-17T09:03:39.355Z,2.05
2023-03-17T09:06:07.550Z,2.20
2023-03-17T09:08:35.555Z,1.98
2023-03-17T09:11:05.280Z,1.70
2023-03-17T09:13:33.175Z,1.98
2023-03-17T09:16:01.434Z,1.70
2023-03-17T09:18:28.259Z,1.98
2023-03-17T09:20:55.110Z,1.98
2023-03-17T09:23:23.282Z,2.25
2023-03-17T09:25:50.113Z,2.15
2023-03-17T09:28:17.464Z,1.40
2023-03-17T09:30:44.545Z,2.17
2023-03-17T09:33:13.081Z,1.50
2023-03-17T09:35:41.104Z,1.60
2023-03-17T09:38:08.612Z,2.35
2023-03-17T09:40:48.377Z,2.17
2023-03-17T09:43:48.482Z,1.75
2023-03-17T09:46:48.725Z,1.63
2023-03-17T09:49:19.877Z,1.60
2023-03-17T09:51:47.363Z,1.80
2023-03-17T09:54:27.553Z,1.83
2023-03-17T09:57:19.708Z,1.83
2023-03-17T09:59:52.014Z,2.05
2023-03-17T10:02:22.983Z,2.88
2023-03-17T10:04:50.073Z,2.28
2023-03-17T10:07:22.498Z,2.30
2023-03-17T10:10:03.548Z,2.73
2023-03-17T10:12:33.077Z,1.73
2023-03-17T10:15:11.390Z,1.85
2023-03-17T10:17:42.669Z,2.00
2023-03-17T10:20:37.755Z,2.10
2023-03-17T10:23:09.684Z,2.00
2023-03-17T10:25:37.368Z,2.20
2023-03-17T10:28:11.441Z,2.10
2023-03-17T10:30:39.687Z,2.33
2023-03-17T10:33:07.205Z,2.15
2023-03-17T10:35:36.462Z,2.13
2023-03-17T10:38:18.897Z,1.73
2023-03-17T10:40:48.345Z,2.13
2023-03-17T10:43:22.519Z,2.00
2023-03-17T10:46:04.623Z,2.10
2023-03-17T10:48:36.562Z,2.17
2023-03-17T10:51:11.040Z,1.95
2023-03-17T10:53:43.278Z,2.20
2023-03-17T10:56:20.392Z,2.10
2023-03-17T10:58:49.466Z,2.15
2023-03-17T11:01:20.018Z,2.35
2023-03-17T11:03:47.968Z,1.80
2023-03-17T11:06:17.276Z,1.73
2023-03-17T11:08:50.880Z,2.08
2023-03-17T11:11:31.082Z,2.42
2023-03-17T11:14:04.115Z,2.35
2023-03-17T11:16:34.053Z,2.33
2023-03-17T11:19:02.434Z,1.65
2023-03-17T11:22:04.918Z,2.60
2023-03-17T11:24:34.059Z,2.58
2023-03-17T11:27:06.924Z,2.50
2023-03-17T11:29:39.563Z,2.63
2023-03-17T11:32:32.651Z,1.92
2023-03-17T11:35:39.637Z,2.38
2023-03-17T11:38:28.094Z,2.30
2023-03-17T11:41:31.406Z,2.33
2023-03-17T11:44:13.388Z,2.70
2023-03-17T11:47:09.139Z,2.40
2023-03-17T11:49:37.420Z,2.45
2023-03-17T11:52:22.645Z,2.70
2023-03-17T11:54:56.649Z,2.22
2023-03-17T11:57:48.175Z,2.95
2023-03-17T12:00:57.043Z,2.10
2023-03-17T12:03:48.623Z,2.53
2023-03-17T12:06:21.457Z,2.67
2023-03-17T12:09:03.961Z,2.15
2023-03-17T12:11:37.173Z,2.22
2023-03-17T12:14:14.178Z,2.38
2023-03-17T12:17:10.559Z,2.40
2023-03-17T12:19:46.443Z,2.10
2023-03-17T12:22:33.672Z,2.08
2023-03-17T12:25:25.538Z,2.22
2023-03-17T12:28:24.464Z,2.22
2023-03-17T12:31:08.494Z,2.28
2023-03-17T12:34:00.384Z,2.20
2023-03-17T12:36:28.002Z,2.50
2023-03-17T12:39:10.199Z,2.45
2023-03-17T12:41:49.038Z,2.92
2023-03-17T12:44:35.284Z,2.72
2023-03-17T12:47:19.807Z,2.95
2023-03-17T12:50:17.799Z,3.20
2023-03-17T12:52:52.832Z,2.58
2023-03-17T12:55:25.397Z,3.22
2023-03-17T12:58:01.380Z,2.38
2023-03-17T13:00:33.328Z,2.80
2023-03-17T13:03:25.965Z,2.67
2023-03-17T13:05:59.242Z,2.78
2023-03-17T13:11:18.816Z,2.67
2023-03-17T13:13:54.769Z,3.58
2023-03-17T13:16:29.747Z,3.05
2023-03-17T13:19:22.867Z,2.97
2023-03-17T13:21:57.404Z,2.83
2023-03-17T13:24:41.909Z,2.53
2023-03-17T13:27:14.449Z,2.97
2023-03-17T13:29:45.311Z,3.13
2023-03-17T13:32:27.160Z,2.90
2023-03-17T13:35:15.772Z,3.05
2023-03-17T13:38:01.818Z,3.10
2023-03-17T13:41:06.296Z,3.05
2023-03-17T13:44:02.903Z,3.33
2023-03-17T13:46:40.418Z,3.25
2023-03-17T13:49:19.419Z,2.50
2023-03-17T13:52:01.673Z,2.88
2023-03-17T13:54:28.651Z,3.10
2023-03-17T13:56:59.347Z,2.90
2023-03-17T13:59:29.036Z,3.15
2023-03-17T14:01:59.938Z,2.88
2023-03-17T14:04:30.784Z,2.55
2023-03-17T14:07:05.055Z,3.00
2023-03-17T14:09:42.080Z,3.63
2023-03-17T14:12:28.083Z,2.83
2023-03-17T14:16:08.335Z,3.08
2023-03-17T14:19:22.366Z,2.90
2023-03-17T14:25:16.809Z,3.33
2023-03-17T14:31:46.202Z,4.35
2023-03-17T14:38:20.593Z,3.22
2023-03-17T14:40:48.255Z,3.17
2023-03-17T14:43:16.259Z,3.33
2023-03-17T14:45:58.959Z,2.58
2023-03-17T14:48:32.295Z,3.30
2023-03-17T14:53:40.437Z,3.58
2023-03-17T14:56:07.555Z,3.78
2023-03-17T14:58:41.742Z,3.65
2023-03-17T15:01:16.263Z,5.05
2023-03-17T15:03:58.774Z,2.67
2023-03-17T15:06:28.052Z,3.15
2023-03-17T15:08:57.635Z,2.53
2023-03-17T15:11:37.062Z,2.95
2023-03-17T15:14:14.163Z,3.72
2023-03-17T15:16:47.082Z,2.75
2023-03-17T15:19:28.913Z,2.45
2023-03-17T15:21:59.731Z,2.60
2023-03-17T15:24:36.496Z,3.00
2023-03-17T15:27:23.589Z,2.83
2023-03-17T15:29:50.322Z,2.88
2023-03-17T15:32:23.289Z,2.90
2023-03-17T15:34:52.314Z,3.00
2023-03-17T15:37:20.526Z,2.70
2023-03-17T15:39:49.155Z,2.30
2023-03-17T15:42:20.110Z,3.22
2023-03-17T15:44:47.140Z,2.38
2023-03-17T15:47:19.850Z,3.25
2023-03-17T15:49:48.408Z,3.05
2023-03-17T15:52:26.655Z,3.05
2023-03-17T15:54:55.276Z,2.83
2023-03-17T15:57:22.700Z,3.28
2023-03-17T15:59:50.439Z,2.83
2023-03-17T16:02:23.095Z,2.67
2023-03-17T16:04:49.972Z,2.72
2023-03-17T16:07:17.230Z,2.85
2023-03-17T16:09:45.418Z,3.10
2023-03-17T16:12:12.822Z,2.80
2023-03-17T16:14:39.884Z,2.80
2023-03-17T16:17:15.693Z,2.38
2023-03-17T16:19:42.486Z,3.05
2023-03-17T16:22:42.604Z,3.55
2023-03-17T16:25:30.750Z,2.58
2023-03-17T16:27:59.797Z,3.13
2023-03-17T16:30:32.527Z,3.30
2023-03-17T16:33:09.377Z,3.28
2023-03-17T16:35:37.407Z,2.90
2023-03-17T16:38:06.719Z,2.80
2023-03-17T16:40:35.813Z,3.22
2023-03-17T16:43:12.853Z,3.17
2023-03-17T16:45:39.878Z,3.47
2023-03-17T16:48:06.642Z,3.03
2023-03-17T16:50:34.011Z,2.92
2023-03-17T16:53:00.866Z,3.13
2023-03-17T16:55:29.351Z,3.17
2023-03-17T16:57:59.322Z,5.00
2023-03-17T17:00:28.804Z,5.30
2023-03-17T17:02:56.506Z,5.25
2023-03-17T17:05:27.998Z,4.68
2023-03-17T17:07:57.209Z,4.13
2023-03-17T17:10:27.352Z,4.80
2023-03-17T17:12:54.903Z,4.00
2023-03-17T17:15:22.870Z,4.22
2023-03-17T17:17:57.029Z,4.90
2023-03-17T17:20:26.069Z,2.95
2023-03-17T17:22:52.984Z,3.65
2023-03-17T17:25:19.700Z,3.22
2023-03-17T17:27:47.159Z,3.25
2023-03-17T17:30:19.250Z,4.72
2023-03-17T17:32:46.788Z,3.22
2023-03-17T17:35:15.413Z,3.47
2023-03-17T17:37:43.076Z,3.70
2023-03-17T17:40:14.073Z,2.85
2023-03-17T17:42:41.123Z,2.88
2023-03-17T17:45:08.769Z,2.92
2023-03-17T17:47:35.878Z,3.85
2023-03-17T17:50:02.753Z,3.10
2023-03-17T17:52:29.394Z,2.58
2023-03-17T17:54:57.080Z,2.80
2023-03-17T17:57:24.256Z,2.78
2023-03-17T17:59:50.993Z,3.00
2023-03-17T18:02:17.780Z,2.75
2023-03-17T18:04:44.483Z,3.20
2023-03-17T18:07:11.253Z,3.03
2023-03-17T18:09:38.077Z,2.72
2023-03-17T18:12:05.096Z,3.08
2023-03-17T18:14:31.856Z,3.42
2023-03-17T18:16:58.648Z,3.10
2023-03-17T18:19:25.945Z,2.40
2023-03-17T18:21:52.694Z,3.38
2023-03-17T18:24:19.628Z,3.15
2023-03-17T18:26:46.628Z,3.45
2023-03-17T18:29:13.405Z,2.53
2023-03-17T18:31:42.331Z,2.97
2023-03-17T18:34:26.960Z,2.38
2023-03-17T18:36:57.426Z,3.05
2023-03-17T18:39:24.263Z,2.88
2023-03-17T18:41:51.084Z,3.20
2023-03-17T18:44:19.676Z,3.08
2023-03-17T18:46:46.400Z,2.60
2023-03-17T18:49:13.293Z,3.53
2023-03-17T18:51:40.228Z,3.42
2023-03-17T18:54:08.227Z,3.20
2023-03-17T18:56:35.146Z,3.63
2023-03-17T18:59:01.889Z,3.13
2023-03-17T19:01:28.728Z,3.13
2023-03-17T19:03:55.489Z,3.20
2023-03-17T19:06:23.409Z,3.25
2023-03-17T19:08:50.197Z,3.53
2023-03-17T19:11:20.000Z,2.58
2023-03-17T19:13:46.671Z,3.90
2023-03-17T19:16:14.045Z,2.95
2023-03-17T19:18:42.303Z,3.22
2023-03-17T19:21:10.488Z,3.50
2023-03-17T19:23:38.263Z,4.13
2023-03-17T19:26:06.001Z,3.78
2023-03-17T19:28:34.339Z,3.88
2023-03-17T19:31:01.330Z,3.40
2023-03-17T19:33:28.923Z,3.80
2023-03-17T19:35:58.533Z,4.10
2023-03-17T19:38:27.014Z,3.75
2023-03-17T19:40:54.397Z,3.95
2023-03-17T19:43:39.134Z,4.13
2023-03-17T19:46:07.877Z,3.85
2023-03-17T19:48:36.415Z,4.47
2023-03-17T19:51:03.392Z,4.05
2023-03-17T19:53:30.360Z,4.93
2023-03-17T19:55:57.099Z,4.90
2023-03-17T19:58:24.207Z,4.25
2023-03-17T20:00:51.489Z,4.30
2023-03-17T20:03:18.497Z,5.45
2023-03-17T20:05:46.196Z,4.28
2023-03-17T20:08:13.146Z,5.00
2023-03-17T20:10:39.918Z,4.75
2023-03-17T20:13:06.652Z,4.68
2023-03-17T20:15:33.823Z,5.32
2023-03-17T20:18:00.741Z,5.40
2023-03-17T20:20:27.685Z,4.50
2023-03-17T20:22:54.402Z,4.25
2023-03-17T20:25:21.794Z,4.35
2023-03-17T20:27:48.696Z,4.65
2023-03-17T20:30:16.081Z,4.72
2023-03-17T20:32:44.105Z,4.95
2023-03-17T20:35:12.331Z,4.63
2023-03-17T20:37:39.443Z,4.85
2023-03-17T20:40:09.897Z,4.90
2023-03-17T20:42:37.407Z,4.70
2023-03-17T20:45:04.787Z,4.97
2023-03-17T20:47:31.625Z,5.65
2023-03-17T20:49:59.426Z,4.43
2023-03-17T20:52:30.290Z,5.07
2023-03-17T20:54:59.414Z,5.35
2023-03-17T20:57:26.410Z,4.63
2023-03-17T20:59:53.190Z,5.13
2023-03-17T21:02:20.788Z,4.82
2023-03-17T21:04:48.847Z,5.72
2023-03-17T21:07:17.694Z,5.15
2023-03-17T21:09:45.454Z,4.82
2023-03-17T21:12:15.380Z,5.25
2023-03-17T21:14:42.420Z,5.40
2023-03-17T21:17:10.813Z,6.18
2023-03-17T21:19:38.175Z,5.15
2023-03-17T21:22:05.453Z,4.57
2023-03-17T21:24:36.925Z,4.80
2023-03-17T21:27:05.854Z,5.53
2023-03-17T21:29:34.088Z,5.53
2023-03-17T21:32:01.995Z,5.05
2023-03-17T21:34:30.153Z,5.75
2023-03-17T21:36:59.594Z,5.82
2023-03-17T21:39:29.514Z,5.55
2023-03-17T21:41:57.593Z,5.82
2023-03-17T21:44:24.437Z,6.03
2023-03-17T21:46:52.350Z,6.25
2023-03-17T21:49:19.109Z,5.60
2023-03-17T21:51:46.898Z,5.13
2023-03-17T21:54:14.337Z,5.50
2023-03-17T21:56:42.637Z,5.50
2023-03-17T21:59:14.535Z,5.88
2023-03-17T22:01:43.498Z,6.07
2023-03-17T22:04:11.200Z,6.10
2023-03-17T22:06:37.970Z,5.28
2023-03-17T22:09:05.325Z,6.25
2023-03-17T22:11:32.074Z,6.32
2023-03-17T22:13:59.242Z,5.57
2023-03-17T22:16:26.110Z,6.10
2023-03-17T22:18:52.953Z,5.28
2023-03-17T22:21:21.394Z,5.63
2023-03-17T22:23:48.227Z,6.20
2023-03-17T22:26:19.781Z,5.40
2023-03-17T22:28:48.407Z,5.78
2023-03-17T22:31:16.948Z,5.25
2023-03-17T22:33:44.664Z,5.60
2023-03-17T22:36:12.261Z,5.85
2023-03-17T22:38:39.268Z,6.00
2023-03-17T22:41:08.112Z,5.75
2023-03-17T22:43:36.075Z,6.13
2023-03-17T22:46:03.597Z,5.95
2023-03-17T22:48:32.457Z,5.43
2023-03-17T22:51:03.389Z,5.97
2023-03-17T22:53:31.504Z,5.22
2023-03-17T22:55:58.964Z,5.88
2023-03-17T22:58:26.395Z,6.15
2023-03-17T23:00:53.849Z,5.25
2023-03-17T23:03:21.104Z,6.00
2023-03-17T23:05:49.773Z,6.30
2023-03-17T23:08:20.827Z,7.07
2023-03-17T23:10:49.973Z,5.53
2023-03-17T23:13:20.890Z,5.78
2023-03-17T23:15:48.251Z,6.30
2023-03-17T23:18:15.346Z,5.93
2023-03-17T23:20:42.427Z,6.32
2023-03-17T23:23:10.786Z,5.97
2023-03-17T23:25:38.364Z,6.70
2023-03-17T23:28:05.682Z,6.47
2023-03-17T23:30:33.003Z,6.03
2023-03-17T23:32:59.990Z,5.50
2023-03-17T23:35:27.274Z,6.20
2023-03-17T23:37:54.442Z,5.85
2023-03-17T23:40:22.121Z,6.22
2023-03-17T23:42:49.481Z,6.85
2023-03-17T23:45:17.953Z,6.05
2023-03-17T23:47:46.660Z,6.00
2023-03-17T23:50:14.742Z,5.78
2023-03-17T23:52:42.486Z,6.55
2023-03-17T23:55:11.794Z,7.65
2023-03-17T23:57:39.107Z,6.70
